sensor_id;sensor_type;location;lat;lon;timestamp;pressure;altitude;pressure_sealevel;temperature;humidity
12897;BME280;6516;35.028;32.372;2023-09-19T00:00:38;99358.50;;;21.91;100.00
12897;BME280;6516;35.028;32.372;2023-09-19T00:03:09;99357.41;;;21.93;100.00
12897;BME280;6516;35.028;32.372;2023-09-19T00:05:39;99354.34;;;21.87;100.00
12897;BME280;6516;35.028;32.372;2023-09-19T00:08:11;99358.88;;;21.86;100.00
12897;BME280;6516;35.028;32.372;2023-09-19T00:10:40;99352.53;;;21.87;100.00
12897;BME280;6516;35.028;32.372;2023-09-19T00:13:11;99351.56;;;21.88;100.00
12897;BME280;6516;35.028;32.372;2023-09-19T00:15:41;99355.44;;;21.84;100.00
12897;BME280;6516;35.028;32.372;2023-09-19T00:18:14;99354.59;;;21.84;100.00
12897;BME280;6516;35.028;32.372;2023-09-19T00:20:47;99351.28;;;21.80;100.00
12897;BME280;6516;35.028;32.372;2023-09-19T00:23:18;99343.63;;;21.87;99.90
12897;BME280;6516;35.028;32.372;2023-09-19T00:25:46;99347.66;;;21.81;98.70
12897;BME280;6516;35.028;32.372;2023-09-19T00:28:15;99344.31;;;21.78;98.25
12897;BME280;6516;35.028;32.372;2023-09-19T00:30:44;99344.69;;;21.73;98.11
12897;BME280;6516;35.028;32.372;2023-09-19T00:33:15;99338.47;;;21.73;98.64
12897;BME280;6516;35.028;32.372;2023-09-19T00:35:48;99340.53;;;21.69;98.64
12897;BME280;6516;35.028;32.372;2023-09-19T00:38:16;99339.00;;;21.65;98.82
12897;BME280;6516;35.028;32.372;2023-09-19T00:40:47;99330.47;;;21.60;99.18
12897;BME280;6516;35.028;32.372;2023-09-19T00:43:18;99334.03;;;21.61;99.48
12897;BME280;6516;35.028;32.372;2023-09-19T00:45:48;99327.31;;;21.66;99.84
12897;BME280;6516;35.028;32.372;2023-09-19T00:48:17;99323.47;;;21.70;99.71
12897;BME280;6516;35.028;32.372;2023-09-19T00:50:47;99324.44;;;21.69;98.34
12897;BME280;6516;35.028;32.372;2023-09-19T00:53:20;99322.94;;;21.65;98.26
12897;BME280;6516;35.028;32.372;2023-09-19T00:55:51;99328.53;;;21.62;98.03
12897;BME280;6516;35.028;32.372;2023-09-19T00:58:23;99319.75;;;21.60;98.03
12897;BME280;6516;35.028;32.372;2023-09-19T01:00:51;99321.72;;;21.58;97.54
12897;BME280;6516;35.028;32.372;2023-09-19T01:03:19;99323.63;;;21.56;97.73
12897;BME280;6516;35.028;32.372;2023-09-19T01:05:47;99335.66;;;21.51;97.39
12897;BME280;6516;35.028;32.372;2023-09-19T01:08:15;99327.69;;;21.38;97.18
12897;BME280;6516;35.028;32.372;2023-09-19T01:10:54;99328.66;;;21.37;97.11
12897;BME280;6516;35.028;32.372;2023-09-19T01:13:31;99329.88;;;21.33;97.80
12897;BME280;6516;35.028;32.372;2023-09-19T01:16:13;99331.69;;;21.33;98.48
12897;BME280;6516;35.028;32.372;2023-09-19T01:18:54;99333.16;;;21.37;98.41
12897;BME280;6516;35.028;32.372;2023-09-19T01:21:30;99330.22;;;21.29;98.25
12897;BME280;6516;35.028;32.372;2023-09-19T01:24:22;99321.31;;;21.28;97.98
12897;BME280;6516;35.028;32.372;2023-09-19T01:27:21;99327.88;;;21.24;98.10
12897;BME280;6516;35.028;32.372;2023-09-19T01:30:09;99320.06;;;21.21;97.94
12897;BME280;6516;35.028;32.372;2023-09-19T01:32:37;99328.09;;;21.21;98.54
12897;BME280;6516;35.028;32.372;2023-09-19T01:35:07;99326.16;;;21.23;98.33
12897;BME280;6516;35.028;32.372;2023-09-19T01:37:39;99318.97;;;21.24;98.46
12897;BME280;6516;35.028;32.372;2023-09-19T01:40:10;99328.59;;;21.26;98.65
12897;BME280;6516;35.028;32.372;2023-09-19T01:42:45;99328.88;;;21.34;98.02
12897;BME280;6516;35.028;32.372;2023-09-19T01:45:26;99329.88;;;21.33;97.49
12897;BME280;6516;35.028;32.372;2023-09-19T01:48:05;99328.88;;;21.34;97.62
12897;BME280;6516;35.028;32.372;2023-09-19T01:50:48;99318.94;;;21.36;97.37
12897;BME280;6516;35.028;32.372;2023-09-19T01:53:24;99326.72;;;21.39;97.30
12897;BME280;6516;35.028;32.372;2023-09-19T01:55:57;99326.00;;;21.37;96.92
12897;BME280;6516;35.028;32.372;2023-09-19T01:58:31;99316.25;;;21.36;96.88
12897;BME280;6516;35.028;32.372;2023-09-19T02:01:04;99318.16;;;21.34;96.71
12897;BME280;6516;35.028;32.372;2023-09-19T02:03:39;99319.88;;;21.35;96.28
12897;BME280;6516;35.028;32.372;2023-09-19T02:06:16;99321.81;;;21.33;95.88
12897;BME280;6516;35.028;32.372;2023-09-19T02:08:46;99317.56;;;21.31;94.87
12897;BME280;6516;35.028;32.372;2023-09-19T02:11:14;99321.22;;;21.30;94.61
12897;BME280;6516;35.028;32.372;2023-09-19T02:13:42;99326.56;;;21.30;93.68
12897;BME280;6516;35.028;32.372;2023-09-19T02:16:14;99326.78;;;21.27;93.35
12897;BME280;6516;35.028;32.372;2023-09-19T02:18:47;99324.47;;;21.22;92.64
12897;BME280;6516;35.028;32.372;2023-09-19T02:21:17;99325.28;;;21.23;92.29
12897;BME280;6516;35.028;32.372;2023-09-19T02:23:47;99327.88;;;21.24;91.70
12897;BME280;6516;35.028;32.372;2023-09-19T02:26:18;99322.31;;;21.15;91.36
12897;BME280;6516;35.028;32.372;2023-09-19T02:28:47;99324.16;;;21.14;90.71
12897;BME280;6516;35.028;32.372;2023-09-19T02:31:17;99324.50;;;21.10;89.82
12897;BME280;6516;35.028;32.372;2023-09-19T02:33:48;99322.06;;;21.07;89.21
12897;BME280;6516;35.028;32.372;2023-09-19T02:36:16;99322.91;;;21.07;88.78
12897;BME280;6516;35.028;32.372;2023-09-19T02:38:44;99324.09;;;21.03;88.83
12897;BME280;6516;35.028;32.372;2023-09-19T02:41:12;99327.53;;;21.05;88.46
12897;BME280;6516;35.028;32.372;2023-09-19T02:43:40;99324.09;;;21.03;87.41
12897;BME280;6516;35.028;32.372;2023-09-19T02:46:08;99324.09;;;21.03;87.01
12897;BME280;6516;35.028;32.372;2023-09-19T02:48:38;99331.78;;;21.08;86.68
12897;BME280;6516;35.028;32.372;2023-09-19T02:51:07;99326.44;;;21.08;86.29
12897;BME280;6516;35.028;32.372;2023-09-19T02:53:36;99321.09;;;21.08;86.19
12897;BME280;6516;35.028;32.372;2023-09-19T02:56:04;99326.53;;;21.06;86.38
12897;BME280;6516;35.028;32.372;2023-09-19T02:58:33;99325.88;;;21.15;85.25
12897;BME280;6516;35.028;32.372;2023-09-19T03:01:08;99318.59;;;21.17;84.87
12897;BME280;6516;35.028;32.372;2023-09-19T03:03:39;99319.31;;;21.19;84.14
12897;BME280;6516;35.028;32.372;2023-09-19T03:06:07;99324.38;;;21.11;83.52
12897;BME280;6516;35.028;32.372;2023-09-19T03:08:36;99321.69;;;21.11;83.35
12897;BME280;6516;35.028;32.372;2023-09-19T03:11:05;99322.06;;;21.07;83.12
12897;BME280;6516;35.028;32.372;2023-09-19T03:13:38;99323.97;;;21.05;82.54
12897;BME280;6516;35.028;32.372;2023-09-19T03:16:06;99323.88;;;21.06;81.19
12897;BME280;6516;35.028;32.372;2023-09-19T03:18:35;99331.91;;;21.06;81.52
12897;BME280;6516;35.028;32.372;2023-09-19T03:21:04;99332.09;;;21.16;79.81
12897;BME280;6516;35.028;32.372;2023-09-19T03:23:32;99324.47;;;21.22;79.44
12897;BME280;6516;35.028;32.372;2023-09-19T03:26:00;99327.00;;;21.24;79.44
12897;BME280;6516;35.028;32.372;2023-09-19T03:28:34;99329.69;;;21.24;79.05
12897;BME280;6516;35.028;32.372;2023-09-19T03:31:03;99341.97;;;21.26;78.86
12897;BME280;6516;35.028;32.372;2023-09-19T03:33:32;99335.31;;;21.32;78.00
12897;BME280;6516;35.028;32.372;2023-09-19T03:36:00;99343.66;;;21.40;77.39
12897;BME280;6516;35.028;32.372;2023-09-19T03:38:34;99342.09;;;21.48;76.85
12897;BME280;6516;35.028;32.372;2023-09-19T03:41:02;99336.31;;;21.54;76.81
12897;BME280;6516;35.028;32.372;2023-09-19T03:43:32;99339.00;;;21.65;76.57
12897;BME280;6516;35.028;32.372;2023-09-19T03:46:03;99330.19;;;21.76;76.81
12897;BME280;6516;35.028;32.372;2023-09-19T03:48:33;99330.59;;;21.82;76.37
12897;BME280;6516;35.028;32.372;2023-09-19T03:51:01;99336.22;;;21.90;76.76
12897;BME280;6516;35.028;32.372;2023-09-19T03:53:29;99340.00;;;21.99;76.50
12897;BME280;6516;35.028;32.372;2023-09-19T03:55:58;99337.72;;;22.05;76.49
12897;BME280;6516;35.028;32.372;2023-09-19T03:58:27;99341.88;;;22.09;77.08
12897;BME280;6516;35.028;32.372;2023-09-19T04:00:55;99347.34;;;22.19;76.74
12897;BME280;6516;35.028;32.372;2023-09-19T04:03:23;99339.94;;;22.22;76.86
12897;BME280;6516;35.028;32.372;2023-09-19T04:06:00;99337.75;;;22.27;77.17
12897;BME280;6516;35.028;32.372;2023-09-19T04:08:28;99348.97;;;22.32;77.37
12897;BME280;6516;35.028;32.372;2023-09-19T04:10:57;99344.97;;;22.38;77.92
12897;BME280;6516;35.028;32.372;2023-09-19T04:13:26;99351.47;;;22.46;78.50
12897;BME280;6516;35.028;32.372;2023-09-19T04:15:55;99359.66;;;22.56;78.95
12897;BME280;6516;35.028;32.372;2023-09-19T04:18:23;99356.59;;;22.60;79.37
12897;BME280;6516;35.028;32.372;2023-09-19T04:20:52;99358.78;;;22.66;79.20
12897;BME280;6516;35.028;32.372;2023-09-19T04:23:23;99366.59;;;22.69;79.73
12897;BME280;6516;35.028;32.372;2023-09-19T04:25:51;99371.22;;;22.78;80.29
12897;BME280;6516;35.028;32.372;2023-09-19T04:28:20;99368.28;;;22.92;80.38
12897;BME280;6516;35.028;32.372;2023-09-19T04:30:53;99363.03;;;23.02;80.71
12897;BME280;6516;35.028;32.372;2023-09-19T04:33:22;99371.59;;;23.07;80.40
12897;BME280;6516;35.028;32.372;2023-09-19T04:35:50;99378.03;;;23.15;80.62
12897;BME280;6516;35.028;32.372;2023-09-19T04:38:18;99376.09;;;23.28;80.83
12897;BME280;6516;35.028;32.372;2023-09-19T04:40:46;99374.56;;;23.46;80.48
12897;BME280;6516;35.028;32.372;2023-09-19T04:43:13;99373.91;;;23.65;80.45
12897;BME280;6516;35.028;32.372;2023-09-19T04:45:44;99378.97;;;23.90;80.32
12897;BME280;6516;35.028;32.372;2023-09-19T04:48:12;99371.78;;;24.11;80.24
12897;BME280;6516;35.028;32.372;2023-09-19T04:50:43;99377.16;;;24.31;80.02
12897;BME280;6516;35.028;32.372;2023-09-19T04:53:10;99374.31;;;24.53;80.01
12897;BME280;6516;35.028;32.372;2023-09-19T04:55:38;99382.09;;;24.77;78.87
12897;BME280;6516;35.028;32.372;2023-09-19T04:58:08;99383.34;;;25.03;78.30
12897;BME280;6516;35.028;32.372;2023-09-19T05:00:36;99382.56;;;25.21;76.90
12897;BME280;6516;35.028;32.372;2023-09-19T05:03:05;99379.94;;;25.40;75.54
12897;BME280;6516;35.028;32.372;2023-09-19T05:05:34;99379.69;;;25.62;75.45
12897;BME280;6516;35.028;32.372;2023-09-19T05:08:04;99385.53;;;25.86;74.88
12897;BME280;6516;35.028;32.372;2023-09-19T05:10:34;99386.13;;;26.09;73.45
12897;BME280;6516;35.028;32.372;2023-09-19T05:13:03;99383.97;;;26.31;72.61
12897;BME280;6516;35.028;32.372;2023-09-19T05:15:33;99379.25;;;26.52;72.15
12897;BME280;6516;35.028;32.372;2023-09-19T05:18:01;99386.19;;;26.74;69.67
12897;BME280;6516;35.028;32.372;2023-09-19T05:20:32;99389.09;;;26.90;67.70
12897;BME280;6516;35.028;32.372;2023-09-19T05:23:03;99396.69;;;27.13;67.29
12897;BME280;6516;35.028;32.372;2023-09-19T05:25:34;99391.91;;;27.35;66.17
12897;BME280;6516;35.028;32.372;2023-09-19T05:28:05;99390.53;;;27.48;66.74
12897;BME280;6516;35.028;32.372;2023-09-19T05:30:34;99389.56;;;27.67;66.54
12897;BME280;6516;35.028;32.372;2023-09-19T05:33:06;99403.44;;;27.81;65.90
12897;BME280;6516;35.028;32.372;2023-09-19T05:35:36;99392.84;;;28.05;64.74
12897;BME280;6516;35.028;32.372;2023-09-19T05:38:08;99395.53;;;28.23;63.19
12897;BME280;6516;35.028;32.372;2023-09-19T05:40:38;99397.00;;;28.35;62.94
12897;BME280;6516;35.028;32.372;2023-09-19T05:43:08;99401.56;;;28.52;61.29
12897;BME280;6516;35.028;32.372;2023-09-19T05:45:36;99410.59;;;28.60;58.81
12897;BME280;6516;35.028;32.372;2023-09-19T05:48:11;99407.81;;;28.78;58.92
12897;BME280;6516;35.028;32.372;2023-09-19T05:50:43;99403.84;;;28.90;56.45
12897;BME280;6516;35.028;32.372;2023-09-19T05:53:15;99415.66;;;29.06;55.58
12897;BME280;6516;35.028;32.372;2023-09-19T05:55:44;99405.94;;;29.29;54.32
12897;BME280;6516;35.028;32.372;2023-09-19T05:58:12;99421.53;;;29.35;53.84
12897;BME280;6516;35.028;32.372;2023-09-19T06:00:45;99410.25;;;29.48;53.99
12897;BME280;6516;35.028;32.372;2023-09-19T06:03:15;99411.50;;;29.61;53.35
12897;BME280;6516;35.028;32.372;2023-09-19T06:05:45;99412.06;;;29.81;54.14
12897;BME280;6516;35.028;32.372;2023-09-19T06:08:15;99418.38;;;29.97;53.27
12897;BME280;6516;35.028;32.372;2023-09-19T06:10:43;99416.34;;;29.99;52.80
12897;BME280;6516;35.028;32.372;2023-09-19T06:13:14;99416.91;;;30.19;52.28
12897;BME280;6516;35.028;32.372;2023-09-19T06:15:47;99418.78;;;30.50;52.47
12897;BME280;6516;35.028;32.372;2023-09-19T06:18:16;99413.84;;;30.78;52.45
12897;BME280;6516;35.028;32.372;2023-09-19T06:20:47;99411.28;;;30.84;50.67
12897;BME280;6516;35.028;32.372;2023-09-19T06:23:17;99416.53;;;31.02;50.05
12897;BME280;6516;35.028;32.372;2023-09-19T06:25:46;99421.75;;;31.27;50.29
12897;BME280;6516;35.028;32.372;2023-09-19T06:28:16;99413.88;;;31.40;49.07
12897;BME280;6516;35.028;32.372;2023-09-19T06:30:50;99420.72;;;31.59;48.77
12897;BME280;6516;35.028;32.372;2023-09-19T06:33:22;99427.66;;;31.77;52.52
12897;BME280;6516;35.028;32.372;2023-09-19T06:35:54;99424.41;;;31.74;53.20
12897;BME280;6516;35.028;32.372;2023-09-19T06:38:25;99433.19;;;31.92;53.28
12897;BME280;6516;35.028;32.372;2023-09-19T06:40:53;99435.44;;;32.11;51.25
12897;BME280;6516;35.028;32.372;2023-09-19T06:43:21;99437.94;;;31.59;52.51
12897;BME280;6516;35.028;32.372;2023-09-19T06:45:49;99434.75;;;31.86;52.89
12897;BME280;6516;35.028;32.372;2023-09-19T06:48:21;99435.56;;;32.17;52.86
12897;BME280;6516;35.028;32.372;2023-09-19T06:50:50;99437.72;;;32.30;52.59
12897;BME280;6516;35.028;32.372;2023-09-19T06:53:24;99438.59;;;32.45;52.82
12897;BME280;6516;35.028;32.372;2023-09-19T06:55:52;99439.06;;;32.71;52.77
12897;BME280;6516;35.028;32.372;2023-09-19T06:58:21;99439.69;;;32.81;51.74
12897;BME280;6516;35.028;32.372;2023-09-19T07:00:49;99444.69;;;32.92;51.48
12897;BME280;6516;35.028;32.372;2023-09-19T07:03:17;99444.59;;;33.00;51.74
12897;BME280;6516;35.028;32.372;2023-09-19T07:05:48;99446.34;;;33.30;51.42
12897;BME280;6516;35.028;32.372;2023-09-19T07:08:17;99441.84;;;33.37;51.25
12897;BME280;6516;35.028;32.372;2023-09-19T07:10:46;99447.94;;;33.53;50.35
12897;BME280;6516;35.028;32.372;2023-09-19T07:13:39;99453.28;;;33.61;50.30
12897;BME280;6516;35.028;32.372;2023-09-19T07:16:07;99452.91;;;33.79;49.79
12897;BME280;6516;35.028;32.372;2023-09-19T07:18:53;99451.59;;;33.90;49.66
12897;BME280;6516;35.028;32.372;2023-09-19T07:21:22;99456.25;;;34.10;49.17
12897;BME280;6516;35.028;32.372;2023-09-19T07:23:51;99448.25;;;34.30;48.36
12897;BME280;6516;35.028;32.372;2023-09-19T07:26:20;99453.91;;;34.28;48.07
12897;BME280;6516;35.028;32.372;2023-09-19T07:28:48;99453.41;;;34.39;47.17
12897;BME280;6516;35.028;32.372;2023-09-19T07:31:15;99446.84;;;34.55;47.17
12897;BME280;6516;35.028;32.372;2023-09-19T07:33:43;99454.91;;;34.63;46.59
12897;BME280;6516;35.028;32.372;2023-09-19T07:36:11;99455.56;;;34.65;47.29
12897;BME280;6516;35.028;32.372;2023-09-19T07:38:42;99453.22;;;34.62;47.00
12897;BME280;6516;35.028;32.372;2023-09-19T07:41:14;99448.06;;;34.52;47.39
12897;BME280;6516;35.028;32.372;2023-09-19T07:43:42;99453.66;;;34.65;46.82
12897;BME280;6516;35.028;32.372;2023-09-19T07:46:10;99459.78;;;34.88;46.16
12897;BME280;6516;35.028;32.372;2023-09-19T07:48:39;99458.97;;;34.94;46.11
12897;BME280;6516;35.028;32.372;2023-09-19T07:51:09;99455.13;;;34.82;45.67
12897;BME280;6516;35.028;32.372;2023-09-19T07:53:37;99451.22;;;34.98;45.67
12897;BME280;6516;35.028;32.372;2023-09-19T07:56:06;99448.69;;;34.75;45.80
12897;BME280;6516;35.028;32.372;2023-09-19T07:58:39;99435.56;;;34.64;46.10
12897;BME280;6516;35.028;32.372;2023-09-19T08:01:10;99450.69;;;34.60;46.18
12897;BME280;6516;35.028;32.372;2023-09-19T08:03:38;99447.41;;;34.50;46.59
12897;BME280;6516;35.028;32.372;2023-09-19T08:06:08;99441.88;;;34.65;46.80
12897;BME280;6516;35.028;32.372;2023-09-19T08:08:36;99441.81;;;34.58;45.32
12897;BME280;6516;35.028;32.372;2023-09-19T08:11:05;99438.75;;;34.47;46.17
12897;BME280;6516;35.028;32.372;2023-09-19T08:13:39;99440.09;;;34.15;46.53
12897;BME280;6516;35.028;32.372;2023-09-19T08:16:09;99440.44;;;33.91;47.49
12897;BME280;6516;35.028;32.372;2023-09-19T08:18:42;99436.38;;;34.02;46.28
12897;BME280;6516;35.028;32.372;2023-09-19T08:21:11;99437.63;;;34.20;45.66
12897;BME280;6516;35.028;32.372;2023-09-19T08:23:40;99438.00;;;34.17;44.92
12897;BME280;6516;35.028;32.372;2023-09-19T08:26:09;99439.31;;;34.21;45.40
12897;BME280;6516;35.028;32.372;2023-09-19T08:28:37;99429.69;;;34.25;45.08
12897;BME280;6516;35.028;32.372;2023-09-19T08:31:08;99428.91;;;34.10;46.15
12897;BME280;6516;35.028;32.372;2023-09-19T08:33:37;99432.41;;;34.40;44.90
12897;BME280;6516;35.028;32.372;2023-09-19T08:36:07;99430.16;;;34.71;45.70
12897;BME280;6516;35.028;32.372;2023-09-19T08:38:35;99427.44;;;34.77;45.04
12897;BME280;6516;35.028;32.372;2023-09-19T08:41:06;99422.66;;;34.79;45.23
12897;BME280;6516;35.028;32.372;2023-09-19T08:43:35;99422.63;;;35.00;44.86
12897;BME280;6516;35.028;32.372;2023-09-19T08:46:11;99418.59;;;34.96;45.46
12897;BME280;6516;35.028;32.372;2023-09-19T08:48:57;99428.19;;;34.86;45.27
12897;BME280;6516;35.028;32.372;2023-09-19T08:51:33;99427.28;;;34.79;45.59
12897;BME280;6516;35.028;32.372;2023-09-19T08:54:15;99432.03;;;34.91;45.38
12897;BME280;6516;35.028;32.372;2023-09-19T08:56:54;99431.00;;;35.26;45.55
12897;BME280;6516;35.028;32.372;2023-09-19T08:59:23;99426.84;;;35.03;45.69
12897;BME280;6516;35.028;32.372;2023-09-19T09:01:54;99429.34;;;34.77;45.78
12897;BME280;6516;35.028;32.372;2023-09-19T09:04:24;99428.25;;;34.71;46.22
12897;BME280;6516;35.028;32.372;2023-09-19T09:06:54;99425.38;;;34.31;46.98
12897;BME280;6516;35.028;32.372;2023-09-19T09:09:24;99432.66;;;34.45;47.36
12897;BME280;6516;35.028;32.372;2023-09-19T09:11:52;99421.47;;;34.40;46.98
12897;BME280;6516;35.028;32.372;2023-09-19T09:14:22;99434.78;;;34.28;47.49
12897;BME280;6516;35.028;32.372;2023-09-19T09:16:52;99434.41;;;34.31;47.37
12897;BME280;6516;35.028;32.372;2023-09-19T09:19:22;99434.16;;;34.47;46.72
12897;BME280;6516;35.028;32.372;2023-09-19T09:21:51;99435.81;;;34.69;46.79
12897;BME280;6516;35.028;32.372;2023-09-19T09:24:29;99430.97;;;34.71;46.67
12897;BME280;6516;35.028;32.372;2023-09-19T09:26:59;99425.16;;;34.53;46.60
12897;BME280;6516;35.028;32.372;2023-09-19T09:29:47;99427.38;;;34.43;46.45
12897;BME280;6516;35.028;32.372;2023-09-19T09:32:23;99434.28;;;34.25;46.55
12897;BME280;6516;35.028;32.372;2023-09-19T09:34:53;99429.47;;;33.85;47.66
12897;BME280;6516;35.028;32.372;2023-09-19T09:37:22;99424.34;;;33.96;47.35
12897;BME280;6516;35.028;32.372;2023-09-19T09:39:53;99437.03;;;34.04;47.00
12897;BME280;6516;35.028;32.372;2023-09-19T09:42:32;99424.19;;;33.83;46.93
12897;BME280;6516;35.028;32.372;2023-09-19T09:45:22;99421.94;;;34.08;46.67
12897;BME280;6516;35.028;32.372;2023-09-19T09:48:05;99427.88;;;34.11;46.43
12897;BME280;6516;35.028;32.372;2023-09-19T09:50:49;99427.41;;;34.08;46.64
12897;BME280;6516;35.028;32.372;2023-09-19T09:53:23;99428.94;;;33.96;46.83
12897;BME280;6516;35.028;32.372;2023-09-19T09:56:04;99422.69;;;33.81;47.55
12897;BME280;6516;35.028;32.372;2023-09-19T09:58:34;99417.94;;;33.89;47.28
12897;BME280;6516;35.028;32.372;2023-09-19T10:01:05;99422.16;;;33.92;47.21
12897;BME280;6516;35.028;32.372;2023-09-19T10:03:44;99421.50;;;34.25;46.92
12897;BME280;6516;35.028;32.372;2023-09-19T10:06:15;99420.56;;;33.97;47.16
12897;BME280;6516;35.028;32.372;2023-09-19T10:09:03;99418.69;;;34.19;46.72
12897;BME280;6516;35.028;32.372;2023-09-19T10:11:43;99425.38;;;34.16;46.56
12897;BME280;6516;35.028;32.372;2023-09-19T10:14:13;99421.88;;;34.22;46.77
12897;BME280;6516;35.028;32.372;2023-09-19T10:16:48;99417.63;;;34.20;46.73
12897;BME280;6516;35.028;32.372;2023-09-19T10:19:27;99421.53;;;34.46;45.80
12897;BME280;6516;35.028;32.372;2023-09-19T10:22:02;99420.03;;;34.08;46.71
12897;BME280;6516;35.028;32.372;2023-09-19T10:24:35;99417.22;;;34.37;46.20
12897;BME280;6516;35.028;32.372;2023-09-19T10:27:06;99413.03;;;34.62;44.88
12897;BME280;6516;35.028;32.372;2023-09-19T10:29:39;99415.09;;;34.81;44.40
12897;BME280;6516;35.028;32.372;2023-09-19T10:32:07;99409.16;;;34.78;44.54
12897;BME280;6516;35.028;32.372;2023-09-19T10:34:38;99406.44;;;35.05;44.18
12897;BME280;6516;35.028;32.372;2023-09-19T10:37:07;99402.03;;;35.11;44.17
12897;BME280;6516;35.028;32.372;2023-09-19T10:39:40;99398.63;;;35.30;42.74
12897;BME280;6516;35.028;32.372;2023-09-19T10:42:14;99397.41;;;35.45;42.73
12897;BME280;6516;35.028;32.372;2023-09-19T10:44:47;99405.72;;;35.24;43.23
12897;BME280;6516;35.028;32.372;2023-09-19T10:47:21;99402.66;;;35.40;43.50
12897;BME280;6516;35.028;32.372;2023-09-19T10:49:54;99397.69;;;35.23;42.90
12897;BME280;6516;35.028;32.372;2023-09-19T10:52:25;99398.16;;;35.26;43.22
12897;BME280;6516;35.028;32.372;2023-09-19T10:54:56;99401.91;;;35.25;43.01
12897;BME280;6516;35.028;32.372;2023-09-19T10:57:27;99396.78;;;35.16;43.23
12897;BME280;6516;35.028;32.372;2023-09-19T11:00:05;99397.41;;;35.11;43.45
12897;BME280;6516;35.028;32.372;2023-09-19T11:03:17;99399.44;;;34.96;43.37
12897;BME280;6516;35.028;32.372;2023-09-19T11:06:10;99396.44;;;34.91;43.02
12897;BME280;6516;35.028;32.372;2023-09-19T11:08:54;99395.66;;;34.97;43.78
12897;BME280;6516;35.028;32.372;2023-09-19T11:11:46;99392.25;;;34.95;43.55
12897;BME280;6516;35.028;32.372;2023-09-19T11:14:40;99393.47;;;35.20;43.18
12897;BME280;6516;35.028;32.372;2023-09-19T11:17:37;99386.41;;;35.32;42.99
12897;BME280;6516;35.028;32.372;2023-09-19T11:20:30;99387.44;;;34.97;43.02
12897;BME280;6516;35.028;32.372;2023-09-19T11:23:23;99383.69;;;35.05;42.97
12897;BME280;6516;35.028;32.372;2023-09-19T11:25:56;99386.25;;;35.13;43.01
12897;BME280;6516;35.028;32.372;2023-09-19T11:28:32;99395.50;;;35.05;43.62
12897;BME280;6516;35.028;32.372;2023-09-19T11:34:40;99385.47;;;35.25;42.66
12897;BME280;6516;35.028;32.372;2023-09-19T11:44:34;99381.88;;;34.63;44.38
12897;BME280;6516;35.028;32.372;2023-09-19T11:47:05;99379.31;;;34.83;43.42
12897;BME280;6516;35.028;32.372;2023-09-19T11:49:35;99385.28;;;34.93;42.91
12897;BME280;6516;35.028;32.372;2023-09-19T11:52:08;99382.34;;;34.94;43.66
12897;BME280;6516;35.028;32.372;2023-09-19T11:54:37;99388.00;;;34.93;43.40
12897;BME280;6516;35.028;32.372;2023-09-19T11:57:09;99381.88;;;34.84;42.82
12897;BME280;6516;35.028;32.372;2023-09-19T11:59:38;99382.97;;;34.90;43.23
12897;BME280;6516;35.028;32.372;2023-09-19T12:02:07;99386.94;;;34.87;42.96
12897;BME280;6516;35.028;32.372;2023-09-19T12:04:42;99391.22;;;34.48;43.90
12897;BME280;6516;35.028;32.372;2023-09-19T12:07:14;99379.25;;;34.76;43.01
12897;BME280;6516;35.028;32.372;2023-09-19T12:09:43;99379.53;;;34.81;42.62
12897;BME280;6516;35.028;32.372;2023-09-19T12:12:21;99380.03;;;34.98;42.16
12897;BME280;6516;35.028;32.372;2023-09-19T12:14:54;99386.28;;;34.85;41.43
12897;BME280;6516;35.028;32.372;2023-09-19T12:17:35;99397.19;;;34.79;41.59
12897;BME280;6516;35.028;32.372;2023-09-19T12:20:07;99387.88;;;35.01;41.17
12897;BME280;6516;35.028;32.372;2023-09-19T12:22:41;99407.19;;;34.93;41.83
12897;BME280;6516;35.028;32.372;2023-09-19T12:25:09;99418.59;;;34.96;41.61
12897;BME280;6516;35.028;32.372;2023-09-19T12:27:46;99422.38;;;34.74;42.93
12897;BME280;6516;35.028;32.372;2023-09-19T12:30:18;99420.97;;;34.57;42.67
12897;BME280;6516;35.028;32.372;2023-09-19T12:32:48;99409.47;;;34.62;43.23
12897;BME280;6516;35.028;32.372;2023-09-19T12:35:27;99412.50;;;34.73;42.83
12897;BME280;6516;35.028;32.372;2023-09-19T12:37:56;99407.59;;;34.69;42.34
12897;BME280;6516;35.028;32.372;2023-09-19T12:40:25;99404.44;;;34.65;42.57
12897;BME280;6516;35.028;32.372;2023-09-19T12:42:57;99399.78;;;34.66;42.51
12897;BME280;6516;35.028;32.372;2023-09-19T12:45:27;99397.75;;;34.74;42.51
12897;BME280;6516;35.028;32.372;2023-09-19T12:48:18;99390.31;;;34.89;42.37
12897;BME280;6516;35.028;32.372;2023-09-19T12:51:03;99390.72;;;34.86;41.60
12897;BME280;6516;35.028;32.372;2023-09-19T12:53:33;99404.56;;;34.78;42.01
12897;BME280;6516;35.028;32.372;2023-09-19T12:56:06;99396.84;;;34.88;41.62
12897;BME280;6516;35.028;32.372;2023-09-19T12:58:49;99403.47;;;35.00;42.14
12897;BME280;6516;35.028;32.372;2023-09-19T13:01:20;99401.75;;;34.99;41.87
12897;BME280;6516;35.028;32.372;2023-09-19T13:04:13;99407.31;;;35.12;41.38
12897;BME280;6516;35.028;32.372;2023-09-19T13:06:44;99397.72;;;34.95;41.81
12897;BME280;6516;35.028;32.372;2023-09-19T13:09:16;99390.34;;;34.68;42.41
12897;BME280;6516;35.028;32.372;2023-09-19T13:11:44;99394.25;;;34.80;42.58
12897;BME280;6516;35.028;32.372;2023-09-19T13:14:23;99389.88;;;34.65;43.00
12897;BME280;6516;35.028;32.372;2023-09-19T13:16:59;99381.78;;;34.78;42.54
12897;BME280;6516;35.028;32.372;2023-09-19T13:19:36;99384.84;;;34.68;42.96
12897;BME280;6516;35.028;32.372;2023-09-19T13:22:05;99382.03;;;34.55;43.33
12897;BME280;6516;35.028;32.372;2023-09-19T13:25:08;99379.69;;;34.52;43.01
12897;BME280;6516;35.028;32.372;2023-09-19T13:27:41;99381.94;;;34.42;44.29
12897;BME280;6516;35.028;32.372;2023-09-19T13:30:16;99387.16;;;34.02;45.04
12897;BME280;6516;35.028;32.372;2023-09-19T13:32:44;99388.25;;;33.86;45.56
12897;BME280;6516;35.028;32.372;2023-09-19T13:35:13;99376.44;;;33.64;46.09
12897;BME280;6516;35.028;32.372;2023-09-19T13:37:42;99383.13;;;33.62;45.40